Time;durP1;ratioP1;P1;durP2;ratioP2;P2;SDS_P1;SDS_P2;PMS_P1;PMS_P2;Temp;Humidity;BMP_temperature;BMP_pressure;BME280_temperature;BME280_humidity;BME280_pressure;Samples;Min_cycle;Max_cycle;Signal;HPM_P1;HPM_P2
2021/12/26 00:01:30;;;;;;;2.97;1.00;;;;;;;;;;5049616;28;20048;-79
2021/12/26 00:03:56;;;;;;;2.67;1.10;;;;;;;;;;5048325;28;20056;-79
2021/12/26 00:06:28;;;;;;;2.53;1.42;;;;;;;;;;5051090;28;20485;-78
2021/12/26 00:08:55;;;;;;;6.47;1.50;;;;;;;;;;5052159;28;20412;-78
2021/12/26 00:11:22;;;;;;;1.85;0.95;;;;;;;;;;5051215;28;20056;-81
2021/12/26 00:13:50;;;;;;;2.25;1.08;;;;;;;;;;5051557;28;21232;-80
2021/12/26 00:16:17;;;;;;;2.40;1.10;;;;;;;;;;5051474;28;20653;-82
2021/12/26 00:18:46;;;;;;;1.90;0.77;;;;;;;;;;5051700;28;20052;-82
2021/12/26 00:21:13;;;;;;;4.35;1.38;;;;;;;;;;5051113;28;20048;-85
2021/12/26 00:23:39;;;;;;;2.78;1.00;;;;;;;;;;5051816;28;20523;-79
2021/12/26 00:26:05;;;;;;;2.38;1.00;;;;;;;;;;5051082;28;20049;-78
2021/12/26 00:28:32;;;;;;;6.28;1.05;;;;;;;;;;5051746;28;20128;-78
2021/12/26 00:30:58;;;;;;;2.85;0.90;;;;;;;;;;5062145;28;20078;-78
2021/12/26 00:33:25;;;;;;;3.58;0.68;;;;;;;;;;5055198;28;20052;-81
2021/12/26 00:35:51;;;;;;;1.42;0.45;;;;;;;;;;5071598;28;20043;-83
2021/12/26 00:38:17;;;;;;;3.78;1.30;;;;;;;;;;5070927;28;20119;-82
2021/12/26 00:40:44;;;;;;;1.75;0.85;;;;;;;;;;5072517;28;20082;-83
2021/12/26 00:43:10;;;;;;;2.30;1.10;;;;;;;;;;5070674;28;20040;-82
2021/12/26 00:45:36;;;;;;;5.43;0.70;;;;;;;;;;5071219;28;20044;-84
2021/12/26 00:48:03;;;;;;;2.30;1.02;;;;;;;;;;5071052;28;20438;-81
2021/12/26 00:50:31;;;;;;;3.40;1.08;;;;;;;;;;5037926;28;20488;-79
2021/12/26 00:52:57;;;;;;;1.90;0.98;;;;;;;;;;5070508;28;20047;-83
2021/12/26 00:55:24;;;;;;;1.30;0.50;;;;;;;;;;5070847;28;20044;-83
2021/12/26 00:57:51;;;;;;;2.47;0.98;;;;;;;;;;5054400;28;20371;-79
2021/12/26 01:00:22;;;;;;;3.65;1.10;;;;;;;;;;5070656;28;20629;-78
2021/12/26 01:02:49;;;;;;;1.30;0.80;;;;;;;;;;5069939;28;20044;-81
2021/12/26 01:05:15;;;;;;;1.98;1.00;;;;;;;;;;5069576;28;20058;-82
2021/12/26 01:10:08;;;;;;;1.42;0.77;;;;;;;;;;5069776;28;20045;-83
2021/12/26 01:12:35;;;;;;;3.47;1.17;;;;;;;;;;5070749;28;20045;-84
2021/12/26 01:15:05;;;;;;;1.98;0.70;;;;;;;;;;5071641;28;20447;-83
2021/12/26 01:17:32;;;;;;;3.25;1.30;;;;;;;;;;5069719;28;20123;-85
2021/12/26 01:19:58;;;;;;;2.10;0.80;;;;;;;;;;5070537;28;20055;-82
2021/12/26 01:22:26;;;;;;;1.35;0.57;;;;;;;;;;5054621;28;20404;-77
2021/12/26 01:24:55;;;;;;;3.58;1.33;;;;;;;;;;5070575;28;20098;-79
2021/12/26 01:27:23;;;;;;;4.35;1.20;;;;;;;;;;5072048;28;20044;-78
2021/12/26 01:29:49;;;;;;;4.18;1.67;;;;;;;;;;5054225;28;20048;-79
2021/12/26 01:32:16;;;;;;;5.05;1.15;;;;;;;;;;5070981;28;20048;-78
2021/12/26 01:34:42;;;;;;;5.20;1.40;;;;;;;;;;5070945;28;20055;-78
2021/12/26 01:37:09;;;;;;;3.08;1.00;;;;;;;;;;5070541;28;20044;-79
2021/12/26 01:39:35;;;;;;;1.73;0.73;;;;;;;;;;5070698;28;20086;-79
2021/12/26 01:42:02;;;;;;;2.72;1.08;;;;;;;;;;5053840;28;20036;-78
2021/12/26 01:44:29;;;;;;;2.72;1.40;;;;;;;;;;5070765;28;20438;-78
2021/12/26 01:46:55;;;;;;;1.42;0.68;;;;;;;;;;5071009;28;20400;-79
2021/12/26 01:49:23;;;;;;;1.30;0.80;;;;;;;;;;5053481;28;20040;-77
2021/12/26 01:51:50;;;;;;;1.65;0.75;;;;;;;;;;5070289;28;20044;-78
2021/12/26 01:54:28;;;;;;;4.63;0.95;;;;;;;;;;5070478;28;20047;-78
2021/12/26 01:56:54;;;;;;;5.72;0.95;;;;;;;;;;5072140;28;20045;-78
2021/12/26 01:59:20;;;;;;;2.65;1.20;;;;;;;;;;5070682;28;20407;-79
2021/12/26 02:01:46;;;;;;;4.18;1.05;;;;;;;;;;5071003;28;20044;-79
2021/12/26 02:04:12;;;;;;;1.13;0.63;;;;;;;;;;5072218;28;20048;-78
2021/12/26 02:06:38;;;;;;;0.82;0.52;;;;;;;;;;5036944;28;20044;-78
2021/12/26 02:09:05;;;;;;;5.30;0.80;;;;;;;;;;5070186;28;20094;-85
2021/12/26 02:11:31;;;;;;;2.13;0.70;;;;;;;;;;5070146;28;20373;-79
2021/12/26 02:13:57;;;;;;;2.20;0.93;;;;;;;;;;5070718;28;20449;-79
2021/12/26 02:16:23;;;;;;;0.82;0.50;;;;;;;;;;5069921;28;20048;-78
2021/12/26 02:18:49;;;;;;;2.25;1.13;;;;;;;;;;5054259;28;20083;-79
2021/12/26 02:21:51;;;;;;;2.67;1.02;;;;;;;;;;5070852;28;20047;-79
2021/12/26 02:24:23;;;;;;;2.83;0.95;;;;;;;;;;5070563;28;20045;-79
2021/12/26 02:29:34;;;;;;;2.55;1.10;;;;;;;;;;5069997;28;20044;-85
2021/12/26 02:32:00;;;;;;;1.98;0.60;;;;;;;;;;5070230;28;20039;-84
2021/12/26 02:34:26;;;;;;;2.55;1.10;;;;;;;;;;5070905;28;20588;-78
2021/12/26 02:36:54;;;;;;;3.38;1.20;;;;;;;;;;5053550;28;20037;-85
2021/12/26 02:39:20;;;;;;;4.45;1.23;;;;;;;;;;5052433;28;20053;-85
2021/12/26 02:41:46;;;;;;;3.33;1.30;;;;;;;;;;5070392;28;20118;-86
2021/12/26 02:44:12;;;;;;;3.35;1.20;;;;;;;;;;5069301;28;20132;-85
2021/12/26 02:46:40;;;;;;;3.42;1.48;;;;;;;;;;5054674;28;20488;-85
2021/12/26 02:49:06;;;;;;;1.08;0.68;;;;;;;;;;5056347;28;20075;-78
2021/12/26 02:51:32;;;;;;;1.92;0.68;;;;;;;;;;5069935;28;20527;-79
2021/12/26 02:53:59;;;;;;;3.45;1.00;;;;;;;;;;5069611;28;20048;-84
2021/12/26 02:56:25;;;;;;;2.75;1.17;;;;;;;;;;5068773;28;20079;-78
2021/12/26 02:58:51;;;;;;;2.95;1.05;;;;;;;;;;5071273;28;20400;-78
2021/12/26 03:01:22;;;;;;;2.47;1.17;;;;;;;;;;5067654;28;20048;-78
2021/12/26 03:03:48;;;;;;;0.82;0.43;;;;;;;;;;5062391;28;20483;-78
2021/12/26 03:06:22;;;;;;;2.50;1.08;;;;;;;;;;5067491;28;20080;-84
2021/12/26 03:08:49;;;;;;;3.42;1.02;;;;;;;;;;5052144;28;20091;-85
2021/12/26 03:11:15;;;;;;;2.80;1.02;;;;;;;;;;5051933;28;20048;-78
2021/12/26 03:13:41;;;;;;;2.47;1.20;;;;;;;;;;5068340;28;20044;-83
2021/12/26 03:16:07;;;;;;;2.20;0.73;;;;;;;;;;5068131;28;20044;-83
2021/12/26 03:18:33;;;;;;;3.70;1.33;;;;;;;;;;5069512;28;20507;-78
2021/12/26 03:20:59;;;;;;;2.58;1.10;;;;;;;;;;5052254;28;20041;-78
2021/12/26 03:23:26;;;;;;;6.18;0.98;;;;;;;;;;5052619;28;20040;-78
2021/12/26 03:26:00;;;;;;;2.72;1.00;;;;;;;;;;5053159;28;20044;-78
2021/12/26 03:28:27;;;;;;;1.70;0.90;;;;;;;;;;5068713;28;20487;-84
2021/12/26 03:30:53;;;;;;;0.98;0.60;;;;;;;;;;5069162;28;20553;-77
2021/12/26 03:33:20;;;;;;;4.22;1.13;;;;;;;;;;5051958;28;20252;-77
2021/12/26 03:35:46;;;;;;;2.25;0.82;;;;;;;;;;5070731;28;20148;-78
2021/12/26 03:38:13;;;;;;;1.73;0.75;;;;;;;;;;5070413;28;20040;-78
2021/12/26 03:40:39;;;;;;;1.08;0.50;;;;;;;;;;5070408;28;20442;-84
2021/12/26 03:43:06;;;;;;;3.45;1.30;;;;;;;;;;5055722;28;20039;-78
2021/12/26 03:45:33;;;;;;;2.67;1.23;;;;;;;;;;5073159;28;20119;-84
2021/12/26 03:47:59;;;;;;;3.38;0.95;;;;;;;;;;5055891;28;20078;-79
2021/12/26 03:50:28;;;;;;;1.88;0.65;;;;;;;;;;5056204;28;20036;-77
2021/12/26 03:52:57;;;;;;;2.25;1.00;;;;;;;;;;5073308;28;20111;-78
2021/12/26 03:55:25;;;;;;;2.30;0.73;;;;;;;;;;5072806;28;20090;-77
2021/12/26 03:57:51;;;;;;;2.13;1.02;;;;;;;;;;5056757;28;20040;-78
2021/12/26 04:00:17;;;;;;;3.22;1.20;;;;;;;;;;5073165;28;20527;-78
2021/12/26 04:02:44;;;;;;;2.58;1.17;;;;;;;;;;5056063;28;20063;-78
2021/12/26 04:05:11;;;;;;;2.70;1.10;;;;;;;;;;5072755;28;20049;-78
2021/12/26 04:07:37;;;;;;;5.05;1.20;;;;;;;;;;5072103;28;20045;-84
2021/12/26 04:10:04;;;;;;;3.15;1.15;;;;;;;;;;5072442;28;20048;-79
2021/12/26 04:12:35;;;;;;;3.38;1.30;;;;;;;;;;5073059;28;20048;-79
2021/12/26 04:15:03;;;;;;;2.83;1.13;;;;;;;;;;5055380;28;20055;-83
2021/12/26 04:17:29;;;;;;;3.38;1.23;;;;;;;;;;5055364;28;20072;-78
2021/12/26 04:19:55;;;;;;;3.78;1.35;;;;;;;;;;5072678;28;20036;-77
2021/12/26 04:22:22;;;;;;;2.00;0.85;;;;;;;;;;5073398;28;20044;-83
2021/12/26 04:24:48;;;;;;;2.13;0.95;;;;;;;;;;5072168;28;20049;-83
2021/12/26 04:27:14;;;;;;;3.00;1.15;;;;;;;;;;5071385;28;20044;-78
2021/12/26 04:29:40;;;;;;;3.25;1.13;;;;;;;;;;5072714;28;20472;-78
2021/12/26 04:32:06;;;;;;;2.55;1.10;;;;;;;;;;5054927;28;20048;-81
2021/12/26 04:34:32;;;;;;;1.00;0.55;;;;;;;;;;5071913;28;20127;-78
2021/12/26 04:36:59;;;;;;;3.72;1.10;;;;;;;;;;5072566;28;20076;-84
2021/12/26 04:39:25;;;;;;;1.52;0.80;;;;;;;;;;5071364;28;20047;-84
2021/12/26 04:41:51;;;;;;;3.33;1.45;;;;;;;;;;5071391;28;20040;-84
2021/12/26 04:44:17;;;;;;;1.65;0.98;;;;;;;;;;5071347;28;20051;-78
2021/12/26 04:46:43;;;;;;;4.28;1.40;;;;;;;;;;5055396;28;20412;-78
2021/12/26 04:49:10;;;;;;;3.67;1.45;;;;;;;;;;5071857;28;20044;-78
2021/12/26 04:51:36;;;;;;;4.72;1.45;;;;;;;;;;5055445;28;20040;-78
2021/12/26 04:54:02;;;;;;;3.85;1.95;;;;;;;;;;5055505;28;20484;-79
2021/12/26 04:56:29;;;;;;;3.17;1.35;;;;;;;;;;5072476;28;20041;-77
2021/12/26 04:58:56;;;;;;;1.02;0.52;;;;;;;;;;5072219;28;20072;-78
2021/12/26 05:01:22;;;;;;;4.50;1.50;;;;;;;;;;5068594;28;20044;-78
2021/12/26 05:03:48;;;;;;;4.72;1.70;;;;;;;;;;5053250;28;20072;-85
2021/12/26 05:06:15;;;;;;;1.60;0.90;;;;;;;;;;5070855;28;20143;-77
2021/12/26 05:08:41;;;;;;;3.92;1.40;;;;;;;;;;5071133;28;20526;-85
2021/12/26 05:11:07;;;;;;;4.57;1.77;;;;;;;;;;5071644;28;20045;-77
2021/12/26 05:13:33;;;;;;;2.60;1.00;;;;;;;;;;5055871;28;20044;-78
2021/12/26 05:16:00;;;;;;;2.67;0.88;;;;;;;;;;5072318;28;20080;-78
2021/12/26 05:18:26;;;;;;;2.17;1.02;;;;;;;;;;5070512;28;20123;-84
2021/12/26 05:20:52;;;;;;;3.22;1.60;;;;;;;;;;5070950;28;20044;-84
2021/12/26 05:23:18;;;;;;;3.47;1.38;;;;;;;;;;5071386;28;20063;-79
2021/12/26 05:25:44;;;;;;;2.33;1.20;;;;;;;;;;5072735;28;20036;-84
2021/12/26 05:28:10;;;;;;;3.28;1.60;;;;;;;;;;5072112;28;20595;-78
2021/12/26 05:30:37;;;;;;;1.10;0.77;;;;;;;;;;5070926;28;20060;-84
2021/12/26 05:33:03;;;;;;;3.22;1.35;;;;;;;;;;5053302;28;20039;-84
2021/12/26 05:35:31;;;;;;;4.70;1.67;;;;;;;;;;5070743;28;20066;-84
2021/12/26 05:37:58;;;;;;;4.50;1.77;;;;;;;;;;5054895;28;20082;-78
2021/12/26 05:40:24;;;;;;;6.20;1.92;;;;;;;;;;5054363;28;20506;-78
2021/12/26 05:42:50;;;;;;;5.10;1.75;;;;;;;;;;5072244;28;20059;-78
2021/12/26 05:45:17;;;;;;;5.50;1.88;;;;;;;;;;5071394;28;20093;-78
2021/12/26 05:47:43;;;;;;;3.65;1.60;;;;;;;;;;5053962;28;20043;-84
2021/12/26 05:50:10;;;;;;;6.05;1.88;;;;;;;;;;5069792;28;20040;-83
2021/12/26 05:52:36;;;;;;;6.03;2.28;;;;;;;;;;5071146;28;20605;-78
2021/12/26 05:55:03;;;;;;;3.30;1.70;;;;;;;;;;5072338;28;20045;-77
2021/12/26 05:57:29;;;;;;;3.13;1.38;;;;;;;;;;5054146;28;20113;-78
2021/12/26 05:59:55;;;;;;;3.50;1.58;;;;;;;;;;5071340;28;20083;-83
2021/12/26 06:02:22;;;;;;;5.55;1.98;;;;;;;;;;5069911;28;20464;-79
2021/12/26 06:04:48;;;;;;;3.70;1.67;;;;;;;;;;5070201;28;20100;-78
2021/12/26 06:07:14;;;;;;;5.25;1.92;;;;;;;;;;5070469;28;20435;-84
2021/12/26 06:09:40;;;;;;;4.18;2.10;;;;;;;;;;5070152;28;20127;-84
2021/12/26 06:12:07;;;;;;;2.55;1.20;;;;;;;;;;5069842;28;20074;-78
2021/12/26 06:14:33;;;;;;;3.60;1.90;;;;;;;;;;5070160;28;20086;-79
2021/12/26 06:16:59;;;;;;;3.42;1.35;;;;;;;;;;5070953;28;20055;-85
2021/12/26 06:19:25;;;;;;;4.78;1.85;;;;;;;;;;5069198;28;20083;-85
2021/12/26 06:21:51;;;;;;;4.13;1.83;;;;;;;;;;5052945;28;20033;-77
2021/12/26 06:24:17;;;;;;;4.53;2.20;;;;;;;;;;5070498;28;20401;-78
2021/12/26 06:26:43;;;;;;;4.22;2.10;;;;;;;;;;5071717;28;20037;-78
2021/12/26 06:29:09;;;;;;;2.92;1.35;;;;;;;;;;5053327;28;20097;-79
2021/12/26 06:31:35;;;;;;;6.45;2.13;;;;;;;;;;5054213;28;20041;-84
2021/12/26 06:34:01;;;;;;;3.83;1.60;;;;;;;;;;5070957;28;20048;-79
2021/12/26 06:36:27;;;;;;;5.85;1.73;;;;;;;;;;5071121;28;20507;-79
2021/12/26 06:38:54;;;;;;;3.38;1.70;;;;;;;;;;5053074;28;20048;-79
2021/12/26 06:41:20;;;;;;;4.13;1.85;;;;;;;;;;5069982;28;20496;-79
2021/12/26 06:43:46;;;;;;;3.65;1.40;;;;;;;;;;5071260;28;20037;-79
2021/12/26 06:46:12;;;;;;;5.63;1.55;;;;;;;;;;5053192;28;20078;-79
2021/12/26 06:48:39;;;;;;;6.40;2.08;;;;;;;;;;5071343;28;20076;-79
2021/12/26 06:51:05;;;;;;;4.18;1.48;;;;;;;;;;5069441;28;20093;-83
2021/12/26 06:53:31;;;;;;;3.58;1.75;;;;;;;;;;5070878;28;20055;-78
2021/12/26 06:55:57;;;;;;;3.03;1.58;;;;;;;;;;5069959;28;20040;-78
2021/12/26 06:58:24;;;;;;;3.15;1.42;;;;;;;;;;5069529;28;20032;-77
2021/12/26 07:00:50;;;;;;;1.67;0.93;;;;;;;;;;5069719;28;20491;-78
2021/12/26 07:03:16;;;;;;;9.38;2.45;;;;;;;;;;5068807;28;20060;-83
2021/12/26 07:05:42;;;;;;;3.20;1.50;;;;;;;;;;5069466;28;20087;-81
2021/12/26 07:08:08;;;;;;;4.10;1.60;;;;;;;;;;5068326;28;20052;-83
2021/12/26 07:10:34;;;;;;;5.30;2.08;;;;;;;;;;5068682;28;20051;-83
2021/12/26 07:13:00;;;;;;;4.07;1.83;;;;;;;;;;5069375;28;20036;-77
2021/12/26 07:15:27;;;;;;;5.38;2.10;;;;;;;;;;5052841;28;20424;-77
2021/12/26 07:17:53;;;;;;;6.07;1.30;;;;;;;;;;5069683;28;20043;-77
2021/12/26 07:20:19;;;;;;;1.83;1.00;;;;;;;;;;5068849;28;20048;-77
2021/12/26 07:22:46;;;;;;;4.32;1.98;;;;;;;;;;5069228;28;20044;-83
2021/12/26 07:25:12;;;;;;;5.28;1.98;;;;;;;;;;5051733;28;20037;-77
2021/12/26 07:27:39;;;;;;;2.72;1.13;;;;;;;;;;5069259;28;20076;-77
2021/12/26 07:30:06;;;;;;;5.22;2.25;;;;;;;;;;5068927;28;20115;-83
2021/12/26 07:32:32;;;;;;;5.75;1.85;;;;;;;;;;5052036;28;20404;-83
2021/12/26 07:34:58;;;;;;;5.30;2.20;;;;;;;;;;5052054;28;20558;-83
2021/12/26 07:37:25;;;;;;;4.57;2.15;;;;;;;;;;5069560;28;20040;-83
2021/12/26 07:39:51;;;;;;;3.97;2.00;;;;;;;;;;5068259;28;20053;-83
2021/12/26 07:42:17;;;;;;;5.80;1.70;;;;;;;;;;5068013;28;20032;-83
2021/12/26 07:44:44;;;;;;;3.22;1.65;;;;;;;;;;5051887;28;20044;-82
2021/12/26 07:47:10;;;;;;;5.57;1.70;;;;;;;;;;5068628;28;20075;-78
2021/12/26 07:49:36;;;;;;;5.78;2.22;;;;;;;;;;5070162;28;20060;-83
2021/12/26 07:52:09;;;;;;;4.32;1.88;;;;;;;;;;5068344;28;20048;-78
2021/12/26 07:54:35;;;;;;;5.15;2.20;;;;;;;;;;5070951;28;20048;-83
2021/12/26 07:57:01;;;;;;;4.70;2.10;;;;;;;;;;5068224;28;20040;-83
2021/12/26 07:59:28;;;;;;;5.43;2.20;;;;;;;;;;5069538;28;20047;-78
2021/12/26 08:01:54;;;;;;;5.05;2.10;;;;;;;;;;5052320;28;20498;-82
2021/12/26 08:04:20;;;;;;;4.20;1.70;;;;;;;;;;5067901;28;20052;-83
2021/12/26 08:06:46;;;;;;;4.65;1.83;;;;;;;;;;5067870;28;20067;-77
2021/12/26 08:09:12;;;;;;;7.15;2.63;;;;;;;;;;5051440;28;20089;-83
2021/12/26 08:11:38;;;;;;;3.05;1.38;;;;;;;;;;5035411;28;20056;-77
2021/12/26 08:14:04;;;;;;;2.58;1.25;;;;;;;;;;5070222;28;20036;-77
2021/12/26 08:16:31;;;;;;;3.78;1.77;;;;;;;;;;5051300;28;20094;-80
2021/12/26 08:18:57;;;;;;;2.65;1.42;;;;;;;;;;5069512;28;20052;-77
2021/12/26 08:21:23;;;;;;;5.20;1.70;;;;;;;;;;5051113;28;20049;-79
2021/12/26 08:23:49;;;;;;;3.40;1.58;;;;;;;;;;5052051;28;20071;-78
2021/12/26 08:26:15;;;;;;;5.97;2.72;;;;;;;;;;5052131;28;20090;-77
2021/12/26 08:28:42;;;;;;;4.72;2.10;;;;;;;;;;5071970;28;20072;-77
2021/12/26 08:31:09;;;;;;;4.43;2.17;;;;;;;;;;5054891;28;20047;-83
2021/12/26 08:33:36;;;;;;;4.05;1.90;;;;;;;;;;5071525;28;20123;-83
2021/12/26 08:36:03;;;;;;;2.90;1.63;;;;;;;;;;5071027;28;20127;-81
2021/12/26 08:38:29;;;;;;;4.85;2.13;;;;;;;;;;5072145;28;20056;-83
2021/12/26 08:40:56;;;;;;;3.88;2.13;;;;;;;;;;5070849;28;20040;-82
2021/12/26 08:43:22;;;;;;;6.18;1.95;;;;;;;;;;5054286;28;20094;-83
2021/12/26 08:45:49;;;;;;;6.00;2.58;;;;;;;;;;5055089;28;20032;-77
2021/12/26 08:48:16;;;;;;;4.00;2.10;;;;;;;;;;5073372;28;20547;-78
2021/12/26 08:50:42;;;;;;;5.03;2.35;;;;;;;;;;5072121;28;20036;-78
2021/12/26 08:53:09;;;;;;;6.55;2.58;;;;;;;;;;5071752;28;20033;-78
2021/12/26 08:55:35;;;;;;;4.57;2.63;;;;;;;;;;5071756;28;20044;-78
2021/12/26 08:58:01;;;;;;;5.43;2.22;;;;;;;;;;5071689;28;20036;-81
2021/12/26 09:00:29;;;;;;;4.60;2.10;;;;;;;;;;5070731;28;20123;-83
2021/12/26 09:02:55;;;;;;;5.72;2.80;;;;;;;;;;5070928;28;20040;-82
2021/12/26 09:05:21;;;;;;;6.90;2.97;;;;;;;;;;5054277;28;20424;-85
2021/12/26 09:07:47;;;;;;;5.00;2.35;;;;;;;;;;5071131;28;20036;-78
2021/12/26 09:10:14;;;;;;;4.85;2.38;;;;;;;;;;5070730;28;20041;-86
2021/12/26 09:12:40;;;;;;;5.55;2.08;;;;;;;;;;5071200;28;20126;-78
2021/12/26 09:15:07;;;;;;;5.45;2.88;;;;;;;;;;5071400;28;20606;-78
2021/12/26 09:17:33;;;;;;;4.70;2.35;;;;;;;;;;5071195;28;20048;-79
2021/12/26 09:19:59;;;;;;;5.53;2.50;;;;;;;;;;5072361;28;20102;-79
2021/12/26 09:22:25;;;;;;;5.80;2.25;;;;;;;;;;5070865;28;20119;-79
2021/12/26 09:24:52;;;;;;;7.20;2.70;;;;;;;;;;5071203;28;20480;-79
2021/12/26 09:27:18;;;;;;;4.10;2.22;;;;;;;;;;5070828;28;20041;-79
2021/12/26 09:29:44;;;;;;;4.65;2.13;;;;;;;;;;5071357;28;20377;-78
2021/12/26 09:32:10;;;;;;;5.50;2.58;;;;;;;;;;5053812;28;20048;-78
2021/12/26 09:34:37;;;;;;;4.47;2.38;;;;;;;;;;5071327;28;20040;-78
2021/12/26 09:37:04;;;;;;;4.85;2.65;;;;;;;;;;5072009;28;20036;-79
2021/12/26 09:39:30;;;;;;;5.07;3.05;;;;;;;;;;5069779;28;20086;-84
2021/12/26 09:41:56;;;;;;;4.65;2.47;;;;;;;;;;5054100;28;20465;-86
2021/12/26 09:44:22;;;;;;;4.70;2.60;;;;;;;;;;5053348;28;20044;-81
2021/12/26 09:46:49;;;;;;;3.92;2.13;;;;;;;;;;5053821;28;20101;-80
2021/12/26 09:49:15;;;;;;;5.88;2.70;;;;;;;;;;5071376;28;20396;-85
2021/12/26 09:51:41;;;;;;;3.75;2.55;;;;;;;;;;5069769;28;20078;-85
2021/12/26 09:54:08;;;;;;;4.68;2.50;;;;;;;;;;5070310;28;20044;-84
2021/12/26 09:56:35;;;;;;;6.15;2.65;;;;;;;;;;5071752;28;20040;-82
2021/12/26 09:59:06;;;;;;;5.97;2.50;;;;;;;;;;5069920;28;20389;-86
2021/12/26 10:01:34;;;;;;;5.97;2.90;;;;;;;;;;5069734;28;20053;-85
2021/12/26 10:04:20;;;;;;;5.70;2.17;;;;;;;;;;5069953;28;20048;-82
2021/12/26 10:06:47;;;;;;;5.65;3.08;;;;;;;;;;5069974;28;20135;-87
2021/12/26 10:09:14;;;;;;;3.45;1.67;;;;;;;;;;5071150;28;20052;-82
2021/12/26 10:11:42;;;;;;;5.70;2.90;;;;;;;;;;5069902;28;20119;-84
2021/12/26 10:14:18;;;;;;;5.10;2.58;;;;;;;;;;5069451;28;20097;-82
2021/12/26 10:16:46;;;;;;;5.38;2.75;;;;;;;;;;5053338;28;20040;-82
2021/12/26 10:19:13;;;;;;;5.20;2.58;;;;;;;;;;5069348;28;20044;-83
2021/12/26 10:21:49;;;;;;;7.32;2.40;;;;;;;;;;5069798;28;20452;-86
2021/12/26 10:24:15;;;;;;;5.32;2.70;;;;;;;;;;5070673;28;20094;-81
2021/12/26 10:26:49;;;;;;;5.40;2.63;;;;;;;;;;5053070;28;20032;-78
2021/12/26 10:29:24;;;;;;;4.50;2.38;;;;;;;;;;5069807;28;20094;-78
2021/12/26 10:31:55;;;;;;;5.68;3.15;;;;;;;;;;5069707;28;20076;-87
2021/12/26 10:34:26;;;;;;;6.05;3.60;;;;;;;;;;5069669;28;20391;-87
2021/12/26 10:36:53;;;;;;;7.05;2.95;;;;;;;;;;5053268;28;20124;-79
2021/12/26 10:39:21;;;;;;;5.05;2.83;;;;;;;;;;5069573;28;20040;-78
2021/12/26 10:41:49;;;;;;;8.93;3.58;;;;;;;;;;5070937;28;20070;-79
2021/12/26 10:44:35;;;;;;;5.07;2.65;;;;;;;;;;5070972;28;20430;-79
2021/12/26 10:47:06;;;;;;;6.82;3.72;;;;;;;;;;5070208;28;20044;-78
2021/12/26 10:49:38;;;;;;;6.57;3.53;;;;;;;;;;5070652;28;20067;-79
2021/12/26 10:52:09;;;;;;;5.43;2.88;;;;;;;;;;5069593;28;20051;-80
2021/12/26 10:54:36;;;;;;;6.68;3.25;;;;;;;;;;5069695;28;20048;-80
2021/12/26 10:57:13;;;;;;;7.47;3.35;;;;;;;;;;5069732;28;20048;-79
2021/12/26 10:59:40;;;;;;;4.78;2.30;;;;;;;;;;5069459;28;20048;-79
2021/12/26 11:02:06;;;;;;;6.43;3.70;;;;;;;;;;5069936;28;20395;-79
2021/12/26 11:04:32;;;;;;;7.32;3.85;;;;;;;;;;5069427;28;20040;-79
2021/12/26 11:06:59;;;;;;;6.38;3.08;;;;;;;;;;5069682;28;20056;-80
2021/12/26 11:09:25;;;;;;;7.68;3.88;;;;;;;;;;5069014;28;20052;-83
2021/12/26 11:12:06;;;;;;;7.60;3.40;;;;;;;;;;5069004;28;20056;-82
2021/12/26 11:14:33;;;;;;;8.13;3.67;;;;;;;;;;5052017;28;20050;-82
2021/12/26 11:16:59;;;;;;;7.35;3.63;;;;;;;;;;5069330;28;20543;-89
2021/12/26 11:19:45;;;;;;;8.00;4.07;;;;;;;;;;5052244;28;20044;-84
2021/12/26 11:22:11;;;;;;;7.65;3.17;;;;;;;;;;5069684;28;20037;-83
2021/12/26 11:24:37;;;;;;;7.43;3.58;;;;;;;;;;5052204;28;20047;-89
2021/12/26 11:27:04;;;;;;;6.78;3.65;;;;;;;;;;5068751;28;20049;-88
2021/12/26 11:29:31;;;;;;;7.13;3.60;;;;;;;;;;5069691;28;20055;-88
2021/12/26 11:31:57;;;;;;;6.78;4.00;;;;;;;;;;5068225;28;20051;-86
2021/12/26 11:34:24;;;;;;;9.27;3.83;;;;;;;;;;5068056;28;20044;-84
2021/12/26 11:36:50;;;;;;;6.43;3.88;;;;;;;;;;5068748;28;20396;-85
2021/12/26 11:39:17;;;;;;;8.07;3.85;;;;;;;;;;5068185;28;20053;-83
2021/12/26 11:41:43;;;;;;;8.00;4.22;;;;;;;;;;5052222;28;20037;-88
2021/12/26 11:44:24;;;;;;;8.27;4.32;;;;;;;;;;5051555;28;20040;-86
2021/12/26 11:47:00;;;;;;;6.53;3.45;;;;;;;;;;5068793;28;20122;-83
2021/12/26 11:49:41;;;;;;;7.05;3.25;;;;;;;;;;5068397;28;20087;-87
2021/12/26 11:52:19;;;;;;;6.45;3.47;;;;;;;;;;5068538;28;20573;-86
2021/12/26 11:54:48;;;;;;;7.63;3.95;;;;;;;;;;5051754;28;20324;-89
2021/12/26 11:57:28;;;;;;;7.68;2.00;;;;;;;;;;5069431;28;20036;-82
2021/12/26 11:59:54;;;;;;;6.40;1.80;;;;;;;;;;5070082;28;20403;-88
2021/12/26 12:02:39;;;;;;;8.00;4.28;;;;;;;;;;5054522;28;20068;-81
2021/12/26 12:05:13;;;;;;;5.80;3.20;;;;;;;;;;5071992;28;20040;-88
2021/12/26 12:07:55;;;;;;;6.68;3.55;;;;;;;;;;5072381;28;20134;-90
2021/12/26 12:10:40;;;;;;;5.78;2.50;;;;;;;;;;5072006;28;20392;-88
2021/12/26 12:13:08;;;;;;;5.90;2.28;;;;;;;;;;5072028;28;20056;-85
2021/12/26 12:15:42;;;;;;;7.22;3.83;;;;;;;;;;5071825;28;20037;-87
2021/12/26 12:18:10;;;;;;;6.28;3.67;;;;;;;;;;5072151;28;20040;-85
2021/12/26 12:20:36;;;;;;;4.72;2.42;;;;;;;;;;5073373;28;20044;-86
2021/12/26 12:23:08;;;;;;;7.75;3.63;;;;;;;;;;5071798;28;20174;-88
2021/12/26 12:25:34;;;;;;;6.72;3.05;;;;;;;;;;5071888;28;20044;-85
2021/12/26 12:28:08;;;;;;;8.25;2.70;;;;;;;;;;5071974;28;20357;-83
2021/12/26 12:30:35;;;;;;;6.95;3.30;;;;;;;;;;5055035;28;20040;-86
2021/12/26 12:33:16;;;;;;;8.80;4.35;;;;;;;;;;5071893;28;20044;-82
2021/12/26 12:35:54;;;;;;;8.98;4.22;;;;;;;;;;5073584;28;20041;-89
2021/12/26 12:38:22;;;;;;;9.10;4.50;;;;;;;;;;5055663;28;20051;-88
2021/12/26 12:40:48;;;;;;;8.10;3.95;;;;;;;;;;5072871;28;20036;-88
2021/12/26 12:43:19;;;;;;;9.00;4.70;;;;;;;;;;5038660;28;20036;-84
2021/12/26 12:45:56;;;;;;;5.40;3.15;;;;;;;;;;5072131;28;20048;-85
2021/12/26 12:48:26;;;;;;;8.52;4.78;;;;;;;;;;5054786;28;20040;-88
2021/12/26 12:50:53;;;;;;;7.78;4.00;;;;;;;;;;5072127;28;20085;-85
2021/12/26 12:53:39;;;;;;;7.43;3.75;;;;;;;;;;5071879;28;20483;-79
2021/12/26 12:56:05;;;;;;;8.38;3.75;;;;;;;;;;5072734;28;20056;-78
2021/12/26 12:58:32;;;;;;;8.13;3.58;;;;;;;;;;5072879;28;20094;-82
2021/12/26 13:00:59;;;;;;;9.65;4.47;;;;;;;;;;5072665;28;20124;-79
2021/12/26 13:03:25;;;;;;;9.40;4.68;;;;;;;;;;5072867;28;20041;-89
2021/12/26 13:05:52;;;;;;;7.72;4.43;;;;;;;;;;5072209;28;20096;-87
2021/12/26 13:08:22;;;;;;;9.93;4.45;;;;;;;;;;5072225;28;20404;-89
2021/12/26 13:10:56;;;;;;;7.03;3.10;;;;;;;;;;5072713;28;20476;-85
2021/12/26 13:13:23;;;;;;;10.80;5.30;;;;;;;;;;5055726;28;20150;-78
2021/12/26 13:15:50;;;;;;;8.88;4.80;;;;;;;;;;5072138;28;20115;-85
2021/12/26 13:18:16;;;;;;;6.95;3.63;;;;;;;;;;5071405;28;20045;-88
2021/12/26 13:20:42;;;;;;;9.30;3.83;;;;;;;;;;5072572;28;20055;-88
2021/12/26 13:23:08;;;;;;;6.28;2.80;;;;;;;;;;5072032;28;20090;-87
2021/12/26 13:25:40;;;;;;;9.00;4.05;;;;;;;;;;5072231;28;20051;-86
2021/12/26 13:28:06;;;;;;;8.23;4.32;;;;;;;;;;5074056;28;20045;-88
2021/12/26 13:30:33;;;;;;;7.82;4.07;;;;;;;;;;5074275;28;20040;-84
2021/12/26 13:32:59;;;;;;;7.15;3.28;;;;;;;;;;5072380;28;20040;-83
2021/12/26 13:35:30;;;;;;;10.35;4.10;;;;;;;;;;5071488;28;20098;-84
2021/12/26 13:37:56;;;;;;;11.57;5.18;;;;;;;;;;5054915;28;20048;-85
2021/12/26 13:40:23;;;;;;;6.57;3.00;;;;;;;;;;5071222;28;20476;-78
2021/12/26 13:42:53;;;;;;;7.20;3.05;;;;;;;;;;5071511;28;20119;-87
2021/12/26 13:45:32;;;;;;;5.30;2.67;;;;;;;;;;5054762;28;20066;-78
2021/12/26 13:47:58;;;;;;;7.38;3.75;;;;;;;;;;5071750;28;20048;-77
2021/12/26 13:50:25;;;;;;;6.78;2.28;;;;;;;;;;5055282;28;20435;-77
2021/12/26 13:53:02;;;;;;;11.35;5.68;;;;;;;;;;5071749;28;20551;-77
2021/12/26 13:55:28;;;;;;;10.15;5.05;;;;;;;;;;5071030;28;20044;-76
2021/12/26 13:58:01;;;;;;;9.68;5.40;;;;;;;;;;5071357;28;20067;-77
2021/12/26 14:00:27;;;;;;;9.98;5.22;;;;;;;;;;5070846;28;20044;-86
2021/12/26 14:02:54;;;;;;;6.32;3.10;;;;;;;;;;5071694;28;20044;-85
2021/12/26 14:05:21;;;;;;;9.20;4.55;;;;;;;;;;5072130;28;20143;-84
2021/12/26 14:08:01;;;;;;;6.30;3.42;;;;;;;;;;5071539;28;20045;-87
2021/12/26 14:10:27;;;;;;;5.63;3.25;;;;;;;;;;5054393;28;20093;-85
2021/12/26 14:12:57;;;;;;;9.70;5.32;;;;;;;;;;5072211;28;20040;-86
2021/12/26 14:15:38;;;;;;;8.50;4.43;;;;;;;;;;5071566;28;20089;-86
2021/12/26 14:18:24;;;;;;;10.88;4.82;;;;;;;;;;5071776;28;20120;-78
2021/12/26 14:20:50;;;;;;;8.98;5.00;;;;;;;;;;5054138;28;20040;-77
2021/12/26 14:23:16;;;;;;;8.77;5.18;;;;;;;;;;5054348;28;20039;-78
2021/12/26 14:25:43;;;;;;;8.95;5.22;;;;;;;;;;5054180;28;20048;-78
2021/12/26 14:28:13;;;;;;;6.35;2.80;;;;;;;;;;5070877;28;20400;-77
2021/12/26 14:30:39;;;;;;;8.98;4.70;;;;;;;;;;5054334;28;20037;-77
2021/12/26 14:33:05;;;;;;;9.90;4.93;;;;;;;;;;5070733;28;20040;-77
2021/12/26 14:35:31;;;;;;;8.30;4.22;;;;;;;;;;5070247;28;20075;-77
2021/12/26 14:38:14;;;;;;;5.68;2.60;;;;;;;;;;5071048;28;20056;-77
2021/12/26 14:40:50;;;;;;;10.38;5.47;;;;;;;;;;5070734;28;20048;-77
2021/12/26 14:43:17;;;;;;;9.55;4.75;;;;;;;;;;5070293;28;20403;-77
2021/12/26 14:45:51;;;;;;;10.82;5.22;;;;;;;;;;5071629;28;20041;-78
2021/12/26 14:48:28;;;;;;;8.90;4.95;;;;;;;;;;5071327;28;20067;-77
2021/12/26 14:50:55;;;;;;;11.10;5.55;;;;;;;;;;5072215;28;20037;-78
2021/12/26 14:53:21;;;;;;;10.20;5.78;;;;;;;;;;5070458;28;20507;-77